Time;durP1;ratioP1;P1;durP2;ratioP2;P2;SDS_P1;SDS_P2;PMS_P1;PMS_P2;Temp;Humidity;BMP_temperature;BMP_pressure;BME280_temperature;BME280_humidity;BME280_pressure;Samples;Min_cycle;Max_cycle;Signal;HPM_P1;HPM_P2
2022/06/15 00:00:51;;;;;;;6.2;2.8;;;;;;;14.49;81.5293;939.8528;;;;
2022/06/15 00:03:19;;;;;;;5.5;3;;;;;;;14.69;80.94434;939.8516;;;;
2022/06/15 00:05:51;;;;;;;5.4;2.9;;;;;;;14.69;80.62109;939.7988;;;;
2022/06/15 00:08:16;;;;;;;4;3.2;;;;;;;14.76;80.11621;939.8088;;;;
2022/06/15 00:10:42;;;;;;;4.7;3.5;;;;;;;14.82;79.97559;939.7688;;;;
2022/06/15 00:13:08;;;;;;;4.4;3;;;;;;;14.86;79.77637;939.775;;;;
2022/06/15 00:15:34;;;;;;;5.8;3.3;;;;;;;14.61;80.54883;939.7706;;;;
2022/06/15 00:17:59;;;;;;;5.8;3;;;;;;;14.44;81.34668;939.7441;;;;
2022/06/15 00:20:26;;;;;;;6.1;3.8;;;;;;;14.13;82.90332;939.7662;;;;
2022/06/15 00:22:51;;;;;;;3.8;2.8;;;;;;;14.23;82.44824;939.7592;;;;
2022/06/15 00:25:17;;;;;;;3.4;3;;;;;;;14.05;83.09277;939.6856;;;;
2022/06/15 00:27:42;;;;;;;4;3;;;;;;;14.04;83.21777;939.6175;;;;
2022/06/15 00:30:11;;;;;;;3.8;2.9;;;;;;;13.91;83.71191;939.6847;;;;
2022/06/15 00:32:36;;;;;;;4.6;3.2;;;;;;;14.2;82.77637;939.6373;;;;
2022/06/15 00:35:04;;;;;;;4.9;3.2;;;;;;;14.1;82.81543;939.6311;;;;
2022/06/15 00:37:29;;;;;;;4.8;2.9;;;;;;;13.96;83.67578;939.6334;;;;
2022/06/15 00:39:55;;;;;;;4.8;3.1;;;;;;;14.2;83.09863;939.6717;;;;
2022/06/15 00:42:21;;;;;;;5;3;;;;;;;14.15;83.02148;939.6799;;;;
2022/06/15 00:44:49;;;;;;;4.4;3.2;;;;;;;14.17;82.81738;939.6285;;;;
2022/06/15 00:47:14;;;;;;;6.4;3.6;;;;;;;14.05;83.41504;939.6423;;;;
2022/06/15 00:49:38;;;;;;;5.1;3.2;;;;;;;14.12;83.01465;939.5677;;;;
2022/06/15 00:52:03;;;;;;;4.3;3;;;;;;;14.11;83.02441;939.5021;;;;
2022/06/15 00:54:28;;;;;;;4.8;3.3;;;;;;;14.23;82.55176;939.6439;;;;
2022/06/15 00:56:53;;;;;;;5.7;3.3;;;;;;;14.32;82.21191;939.614;;;;
2022/06/15 00:59:18;;;;;;;3.5;3.2;;;;;;;14.43;81.53125;939.5837;;;;
2022/06/15 01:01:43;;;;;;;7.6;3.6;;;;;;;14.42;81.22949;939.505;;;;
2022/06/15 01:04:08;;;;;;;3.6;3.1;;;;;;;14.48;80.94043;939.5933;;;;
2022/06/15 01:06:34;;;;;;;4.6;2.9;;;;;;;14.18;82.3584;939.5756;;;;
2022/06/15 01:09:00;;;;;;;4;3.5;;;;;;;14.14;82.5459;939.5421;;;;
2022/06/15 01:11:25;;;;;;;5.8;3.3;;;;;;;14.03;83.21582;939.5831;;;;
2022/06/15 01:13:50;;;;;;;6.5;3.4;;;;;;;13.82;84.09668;939.5111;;;;
2022/06/15 01:16:15;;;;;;;7;3.7;;;;;;;13.95;83.45508;939.5109;;;;
2022/06/15 01:18:42;;;;;;;4.9;3.6;;;;;;;14.08;82.76563;939.5262;;;;
2022/06/15 01:21:07;;;;;;;3.9;3.3;;;;;;;14.21;82.14355;939.5034;;;;
2022/06/15 01:23:32;;;;;;;4.1;3.1;;;;;;;14.11;82.4834;939.5189;;;;
2022/06/15 01:25:57;;;;;;;3.6;3.1;;;;;;;13.97;82.98535;939.5197;;;;
2022/06/15 01:28:22;;;;;;;4.8;3.2;;;;;;;13.86;83.43652;939.4318;;;;
2022/06/15 01:30:49;;;;;;;4.9;3.5;;;;;;;13.83;83.5459;939.4398;;;;
2022/06/15 01:33:14;;;;;;;5.8;3.6;;;;;;;13.71;84.31738;939.4197;;;;
2022/06/15 01:35:41;;;;;;;3.9;3;;;;;;;13.89;83.86914;939.507;;;;
2022/06/15 01:38:19;;;;;;;3.8;3.2;;;;;;;14.02;82.75391;939.4327;;;;
2022/06/15 01:40:32;;;;;;;4.7;3.5;;;;;;;13.88;83.27832;939.403;;;;
2022/06/15 01:42:58;;;;;;;3.8;3.4;;;;;;;13.79;83.95313;939.4108;;;;
2022/06/15 01:45:23;;;;;;;3.5;2.8;;;;;;;13.9;83.22461;939.4886;;;;
2022/06/15 01:47:48;;;;;;;3.8;3.4;;;;;;;13.78;84.13574;939.4628;;;;
2022/06/15 01:50:13;;;;;;;4.3;3.4;;;;;;;13.51;85.70313;939.4178;;;;
2022/06/15 01:52:38;;;;;;;4.3;3.1;;;;;;;13.66;85.25195;939.4621;;;;
2022/06/15 01:55:04;;;;;;;6.3;3.5;;;;;;;13.5;85.75879;939.4339;;;;
2022/06/15 01:57:30;;;;;;;5;3.2;;;;;;;13.57;85.37012;939.4058;;;;
2022/06/15 01:59:55;;;;;;;5.8;3.3;;;;;;;13.48;85.60742;939.4258;;;;
2022/06/15 02:02:20;;;;;;;3.6;3.1;;;;;;;13.62;84.99023;939.3813;;;;
2022/06/15 02:04:46;;;;;;;9.6;4.1;;;;;;;13.69;84.39453;939.3428;;;;
2022/06/15 02:07:11;;;;;;;5.4;3.4;;;;;;;13.44;85.64453;939.433;;;;
2022/06/15 02:09:36;;;;;;;4.4;3.3;;;;;;;13.48;85.55957;939.4691;;;;
2022/06/15 02:12:04;;;;;;;4.3;3.5;;;;;;;13.46;85.72852;939.3578;;;;
2022/06/15 02:14:29;;;;;;;4.9;3.3;;;;;;;13.55;85.0332;939.4026;;;;
2022/06/15 02:16:54;;;;;;;4.9;3.7;;;;;;;13.29;86.23438;939.3679;;;;
2022/06/15 02:19:19;;;;;;;5.3;3.3;;;;;;;13.46;85.55566;939.4242;;;;
2022/06/15 02:21:44;;;;;;;6.6;3.9;;;;;;;13.38;85.8291;939.4023;;;;
2022/06/15 02:24:10;;;;;;;4.3;3.4;;;;;;;13.2;86.71094;939.3619;;;;
2022/06/15 02:26:36;;;;;;;7.1;3.7;;;;;;;13.12;87.29395;939.3231;;;;
2022/06/15 02:29:01;;;;;;;7.8;3.8;;;;;;;13.01;88.08691;939.3334;;;;
2022/06/15 02:31:27;;;;;;;6.4;3.6;;;;;;;13.08;87.79004;939.3135;;;;
2022/06/15 02:33:54;;;;;;;5.9;3.8;;;;;;;13;88.23242;939.3411;;;;
2022/06/15 02:36:19;;;;;;;6.9;3.8;;;;;;;12.9;89.07324;939.368;;;;
2022/06/15 02:38:46;;;;;;;5.1;3.5;;;;;;;12.84;89.24414;939.3359;;;;
2022/06/15 02:41:11;;;;;;;6.5;3.8;;;;;;;12.73;89.85547;939.3035;;;;
2022/06/15 02:43:36;;;;;;;5.2;3.7;;;;;;;12.61;90.97852;939.3886;;;;
2022/06/15 02:46:03;;;;;;;7;4.2;;;;;;;12.8;89.93652;939.3412;;;;
2022/06/15 02:48:28;;;;;;;4.9;3.6;;;;;;;12.92;89.16895;939.3674;;;;
2022/06/15 02:50:54;;;;;;;5.6;3.9;;;;;;;12.65;90.60547;939.3783;;;;
2022/06/15 02:53:20;;;;;;;6.2;3.8;;;;;;;12.73;90.19727;939.4017;;;;
2022/06/15 02:55:45;;;;;;;4.3;3.4;;;;;;;12.76;89.97363;939.4153;;;;
2022/06/15 02:58:10;;;;;;;5.7;3.9;;;;;;;12.75;90.27051;939.3922;;;;
2022/06/15 03:00:35;;;;;;;10.8;4;;;;;;;12.96;89.01563;939.3858;;;;
2022/06/15 03:03:00;;;;;;;5.8;3.6;;;;;;;12.74;90.23535;939.3873;;;;
2022/06/15 03:05:25;;;;;;;5.7;3.5;;;;;;;12.66;90.50391;939.3783;;;;
2022/06/15 03:07:53;;;;;;;4.2;3.7;;;;;;;12.56;90.95313;939.3137;;;;
2022/06/15 03:10:18;;;;;;;5.4;3.4;;;;;;;12.47;92.07031;939.3574;;;;
2022/06/15 03:12:43;;;;;;;4.3;3.7;;;;;;;12.42;92.56445;939.3597;;;;
2022/06/15 03:15:10;;;;;;;7.7;4;;;;;;;12.71;91.8457;939.3881;;;;
2022/06/15 03:17:37;;;;;;;4.4;3.5;;;;;;;12.69;91.18652;939.4112;;;;
2022/06/15 03:20:02;;;;;;;5.1;3.6;;;;;;;12.59;91.13281;939.4185;;;;
2022/06/15 03:22:27;;;;;;;6.8;4.1;;;;;;;12.49;91.42188;939.3479;;;;
2022/06/15 03:24:52;;;;;;;6.9;4.1;;;;;;;12.59;91.0752;939.4153;;;;
2022/06/15 03:27:21;;;;;;;4.4;3.7;;;;;;;12.59;90.74316;939.329;;;;
2022/06/15 03:29:47;;;;;;;4.2;3.4;;;;;;;12.57;90.55566;939.3594;;;;
2022/06/15 03:32:15;;;;;;;5.4;3.7;;;;;;;12.59;90.60547;939.3139;;;;
2022/06/15 03:34:37;;;;;;;3.9;3.5;;;;;;;12.59;90.50195;939.3914;;;;
2022/06/15 03:37:04;;;;;;;6.5;3.9;;;;;;;12.41;91.80566;939.3209;;;;
2022/06/15 03:39:29;;;;;;;4.9;3.6;;;;;;;12.45;91.88477;939.3948;;;;
2022/06/15 03:41:55;;;;;;;5.7;4;;;;;;;12.52;91.95508;939.3567;;;;
2022/06/15 03:44:19;;;;;;;5.8;4;;;;;;;12.72;90.93164;939.3705;;;;
2022/06/15 03:46:46;;;;;;;5.7;3.8;;;;;;;12.56;91.57422;939.4863;;;;
2022/06/15 03:49:11;;;;;;;4.8;3.8;;;;;;;12.61;91.41406;939.4412;;;;
2022/06/15 03:51:36;;;;;;;5.4;3.9;;;;;;;12.69;91.02734;939.36;;;;
2022/06/15 03:54:02;;;;;;;5.6;3.8;;;;;;;12.95;89.91113;939.4217;;;;
2022/06/15 03:56:27;;;;;;;6.2;3.7;;;;;;;12.89;89.43945;939.3864;;;;
2022/06/15 03:58:52;;;;;;;4.9;3.6;;;;;;;12.81;89.74414;939.378;;;;
2022/06/15 04:03:00;;;;;;;5.3;3.5;;;;;;;12.78;90.37891;939.4442;;;;
2022/06/15 04:05:25;;;;;;;4.1;3.4;;;;;;;12.8;90.91211;939.4754;;;;
2022/06/15 04:10:16;;;;;;;5.4;4;;;;;;;12.85;90.63672;939.3903;;;;
2022/06/15 04:12:43;;;;;;;5.5;3.8;;;;;;;13.01;89.66992;939.4178;;;;
2022/06/15 04:15:06;;;;;;;4.7;3.7;;;;;;;12.97;89.59375;939.4226;;;;
2022/06/15 04:17:32;;;;;;;5;3.8;;;;;;;12.85;90.14355;939.4311;;;;
2022/06/15 04:22:22;;;;;;;4.6;3.9;;;;;;;13.03;89.01953;939.4597;;;;
2022/06/15 04:24:48;;;;;;;5.4;3.9;;;;;;;13.02;89.34082;939.3837;;;;
2022/06/15 04:27:14;;;;;;;5.3;3.6;;;;;;;13.14;88.69824;939.4224;;;;
2022/06/15 04:29:38;;;;;;;7.1;3.7;;;;;;;13.15;88.91895;939.3423;;;;
2022/06/15 04:32:03;;;;;;;4.2;3.5;;;;;;;13.05;89.59863;939.435;;;;
2022/06/15 04:34:28;;;;;;;7.4;4.3;;;;;;;13.11;89.11621;939.4231;;;;
2022/06/15 04:36:54;;;;;;;4.1;3.7;;;;;;;13.26;88.66504;939.3934;;;;
2022/06/15 04:39:19;;;;;;;4.1;3.4;;;;;;;13.26;89.1709;939.3934;;;;
2022/06/15 04:41:45;;;;;;;4.6;3.5;;;;;;;13.54;88.57227;939.3995;;;;
2022/06/15 04:44:10;;;;;;;6.9;3.6;;;;;;;13.75;87.29004;939.402;;;;
2022/06/15 04:46:37;;;;;;;5.3;3.8;;;;;;;13.64;87.51172;939.4109;;;;
2022/06/15 04:49:03;;;;;;;10.3;5.8;;;;;;;13.77;86.77832;939.4916;;;;
2022/06/15 04:51:29;;;;;;;7.1;4.5;;;;;;;13.76;86.9375;939.4469;;;;
2022/06/15 04:56:18;;;;;;;5.3;3.5;;;;;;;13.93;86.71875;939.4325;;;;
2022/06/15 04:58:43;;;;;;;9.4;3.6;;;;;;;13.97;86.37988;939.4524;;;;
2022/06/15 05:01:10;;;;;;;5.8;3.7;;;;;;;14.11;86.58301;939.4156;;;;
2022/06/15 05:03:37;;;;;;;6.3;3.3;;;;;;;14.88;83.56445;939.4125;;;;
2022/06/15 05:06:01;;;;;;;5.9;3;;;;;;;15.97;78.01465;939.3621;;;;
2022/06/15 05:08:26;;;;;;;5.9;3;;;;;;;17.13;73.35352;939.3642;;;;
2022/06/15 05:10:51;;;;;;;7.7;2.5;;;;;;;17.95;69.98145;939.2586;;;;
2022/06/15 05:13:18;;;;;;;3.3;2.5;;;;;;;18.55;67.81055;939.3298;;;;
2022/06/15 05:15:43;;;;;;;4;2.5;;;;;;;18.98;65.32617;939.3116;;;;
2022/06/15 05:18:11;;;;;;;5;2.6;;;;;;;18.54;66.67969;939.3365;;;;
2022/06/15 05:20:35;;;;;;;6.2;3.1;;;;;;;19.06;65.75781;939.3247;;;;
2022/06/15 05:23:01;;;;;;;4.4;2.3;;;;;;;19.87;63.00879;939.3042;;;;
2022/06/15 05:25:27;;;;;;;5.4;2.6;;;;;;;20.8;59.20313;939.2557;;;;
2022/06/15 05:27:51;;;;;;;4;2.6;;;;;;;21.48;57.91309;939.22;;;;
2022/06/15 05:30:16;;;;;;;3.5;2.4;;;;;;;21.51;57.58887;939.2012;;;;
2022/06/15 05:32:41;;;;;;;3.6;2.5;;;;;;;22.06;56.55762;939.2408;;;;
2022/06/15 05:35:09;;;;;;;4.5;2.4;;;;;;;21.87;56.19336;939.1962;;;;
2022/06/15 05:37:35;;;;;;;7.1;2.5;;;;;;;22.49;55.0752;939.2242;;;;
2022/06/15 05:40:00;;;;;;;4.6;2.2;;;;;;;23.55;51.60742;939.2166;;;;
2022/06/15 05:42:28;;;;;;;3.2;2.4;;;;;;;24.09;49.93945;939.187;;;;
2022/06/15 05:44:51;;;;;;;2.4;2.2;;;;;;;24.09;49.77441;939.205;;;;
2022/06/15 05:47:16;;;;;;;3.8;2.3;;;;;;;23.85;50.60742;939.2267;;;;
2022/06/15 05:49:41;;;;;;;3.1;2.2;;;;;;;22.95;53.44141;939.2214;;;;
2022/06/15 05:52:06;;;;;;;5.5;2.4;;;;;;;23.48;51.99902;939.2455;;;;
2022/06/15 05:54:31;;;;;;;5.1;2;;;;;;;24.17;49.54785;939.0781;;;;
2022/06/15 05:56:59;;;;;;;2.2;2;;;;;;;24.84;47.32324;939.1889;;;;
2022/06/15 05:59:24;;;;;;;3.7;2;;;;;;;24.4;48.58301;939.2407;;;;
2022/06/15 06:01:51;;;;;;;4.7;2;;;;;;;24.76;48.18652;939.1917;;;;
2022/06/15 06:04:16;;;;;;;2.7;1.8;;;;;;;24.57;47.63672;939.1675;;;;
2022/06/15 06:06:42;;;;;;;3.6;2.1;;;;;;;24.67;50.57129;939.1636;;;;
2022/06/15 06:09:07;;;;;;;4.6;2;;;;;;;25.56;46.89063;939.1415;;;;
2022/06/15 06:11:34;;;;;;;3.1;1.8;;;;;;;26.15;43.85254;939.1667;;;;
2022/06/15 06:13:59;;;;;;;4.3;2.1;;;;;;;25.79;45.86328;939.1036;;;;
2022/06/15 06:16:27;;;;;;;3.9;2.1;;;;;;;26.52;45.32129;939.163;;;;
2022/06/15 06:18:52;;;;;;;2.3;1.8;;;;;;;27.48;43.02148;939.1891;;;;
2022/06/15 06:21:18;;;;;;;3.5;2.5;;;;;;;28.85;38.83301;939.095;;;;
2022/06/15 06:23:43;;;;;;;4.8;2;;;;;;;29.62;36.55078;939.0848;;;;
2022/06/15 06:26:09;;;;;;;4;1.9;;;;;;;29.1;37.24707;939.1261;;;;
2022/06/15 06:28:34;;;;;;;2.8;1.7;;;;;;;28.96;37.43848;939.1089;;;;
2022/06/15 06:31:01;;;;;;;3;1.6;;;;;;;28.47;36.87402;939.1185;;;;
2022/06/15 06:33:26;;;;;;;4.2;1.7;;;;;;;28.51;36.67578;939.1201;;;;
2022/06/15 06:35:51;;;;;;;3.6;1.9;;;;;;;29;38.07227;939.1136;;;;
2022/06/15 06:38:16;;;;;;;3.5;1.6;;;;;;;30.54;34.73828;939.0648;;;;
2022/06/15 06:40:43;;;;;;;2.4;1.5;;;;;;;29.72;35.23535;939.0865;;;;
2022/06/15 06:43:08;;;;;;;2;1.8;;;;;;;30.22;36.27734;939.0465;;;;
2022/06/15 06:45:34;;;;;;;2.6;1.9;;;;;;;31.06;33.82129;939.0475;;;;
2022/06/15 06:48:00;;;;;;;3.3;1.9;;;;;;;31.77;32.91602;939.0311;;;;
2022/06/15 06:50:26;;;;;;;2.1;1.9;;;;;;;30.67;32.78809;939.0134;;;;
2022/06/15 06:52:51;;;;;;;2.5;2;;;;;;;31.21;32.99512;939.0566;;;;
2022/06/15 06:55:19;;;;;;;2.2;1.7;;;;;;;30.2;33.76855;939.0778;;;;
2022/06/15 06:57:43;;;;;;;4.9;2;;;;;;;29.36;35.20801;939.0963;;;;
2022/06/15 07:00:09;;;;;;;2.6;1.9;;;;;;;30.06;34.61719;939.0552;;;;
2022/06/15 07:02:34;;;;;;;2.5;1.8;;;;;;;29.56;34.30566;939.0259;;;;
2022/06/15 07:05:00;;;;;;;2.2;1.8;;;;;;;29.36;34.59961;939.0151;;;;
2022/06/15 07:07:25;;;;;;;2.5;1.7;;;;;;;27.81;38.2207;938.9986;;;;
2022/06/15 07:09:52;;;;;;;3.5;2.3;;;;;;;28.05;37.86133;939.0419;;;;
2022/06/15 07:12:17;;;;;;;3.2;1.9;;;;;;;27.46;37.28906;939.0358;;;;
2022/06/15 07:14:44;;;;;;;3;1.6;;;;;;;28.08;38.17285;938.9766;;;;
2022/06/15 07:17:09;;;;;;;2.1;1.5;;;;;;;29.03;35.97949;938.9497;;;;
2022/06/15 07:19:36;;;;;;;2.4;1.7;;;;;;;28.19;36.76758;938.9702;;;;
2022/06/15 07:22:01;;;;;;;2.5;1.7;;;;;;;28.73;39.07227;938.9454;;;;
2022/06/15 07:24:27;;;;;;;4.2;2.1;;;;;;;29.15;36.46582;938.9336;;;;
2022/06/15 07:26:53;;;;;;;5.3;1.9;;;;;;;29.62;35.40723;938.9138;;;;
2022/06/15 07:29:18;;;;;;;2.8;2.1;;;;;;;30.32;34.93652;938.9339;;;;
2022/06/15 07:31:43;;;;;;;2.7;1.8;;;;;;;29.94;35.66992;938.8887;;;;
2022/06/15 07:34:08;;;;;;;3.5;1.8;;;;;;;29.71;38.01367;938.8806;;;;
2022/06/15 07:36:35;;;;;;;3.2;1.8;;;;;;;28.65;36.8291;938.8523;;;;
2022/06/15 07:39:00;;;;;;;2.6;2;;;;;;;29.01;37.0498;938.849;;;;
2022/06/15 07:41:25;;;;;;;2.7;1.8;;;;;;;30.06;36.25293;938.7355;;;;
2022/06/15 07:43:50;;;;;;;2.1;1.9;;;;;;;30.07;38.29395;938.794;;;;
2022/06/15 07:46:17;;;;;;;2.8;2;;;;;;;29.73;35.7373;938.7502;;;;
2022/06/15 07:51:07;;;;;;;2.7;1.8;;;;;;;30.62;36.2373;938.6605;;;;
2022/06/15 07:53:33;;;;;;;2;1.7;;;;;;;30.46;37.98047;938.6775;;;;
2022/06/15 07:55:58;;;;;;;3.4;1.9;;;;;;;30.6;35.80566;938.729;;;;
2022/06/15 07:58:23;;;;;;;3.7;2.1;;;;;;;30.86;35.59961;938.6811;;;;
2022/06/15 08:00:50;;;;;;;3.2;1.9;;;;;;;30.7;35.09668;938.676;;;;
2022/06/15 08:03:15;;;;;;;2.6;1.9;;;;;;;29.97;35.35059;938.6206;;;;
2022/06/15 08:05:41;;;;;;;3.5;1.8;;;;;;;29.89;35.64258;938.6277;;;;
2022/06/15 08:08:06;;;;;;;2.7;1.8;;;;;;;29.58;38.53809;938.6326;;;;
2022/06/15 08:10:34;;;;;;;2.8;1.9;;;;;;;30.14;36.02051;938.5898;;;;
2022/06/15 08:12:59;;;;;;;3.9;1.7;;;;;;;29.25;39.60645;938.5234;;;;
2022/06/15 08:15:25;;;;;;;2.2;1.6;;;;;;;29.99;39.01563;938.553;;;;
2022/06/15 08:17:50;;;;;;;2.4;1.9;;;;;;;29.7;38.89453;938.4908;;;;
2022/06/15 08:20:19;;;;;;;2.1;1.9;;;;;;;29.34;41.74707;938.5173;;;;
2022/06/15 08:22:44;;;;;;;3.3;1.6;;;;;;;28.6;43.15332;938.5239;;;;
2022/06/15 08:25:09;;;;;;;2.9;1.7;;;;;;;28.44;43.18555;938.5069;;;;
2022/06/15 08:27:34;;;;;;;2;1.7;;;;;;;28.37;43.22656;938.4374;;;;
2022/06/15 08:29:59;;;;;;;2.5;1.9;;;;;;;27.98;46.96582;938.4628;;;;
2022/06/15 08:32:25;;;;;;;2.5;2;;;;;;;29.09;43.10449;938.4551;;;;
2022/06/15 08:34:51;;;;;;;6.4;2.8;;;;;;;29.4;40.59668;938.4881;;;;
2022/06/15 08:37:16;;;;;;;2.5;1.9;;;;;;;29.06;40.87598;938.4673;;;;
2022/06/15 08:39:43;;;;;;;2.6;1.8;;;;;;;28.76;39.80078;938.4934;;;;
2022/06/15 08:42:08;;;;;;;2.5;2.1;;;;;;;28.52;43.57324;938.5406;;;;
2022/06/15 08:44:34;;;;;;;3.1;1.9;;;;;;;27.57;46.5791;938.5486;;;;
2022/06/15 08:46:58;;;;;;;3;1.8;;;;;;;27.32;46.82617;938.5605;;;;
2022/06/15 08:49:26;;;;;;;2.3;2.1;;;;;;;27.68;46.28223;938.5598;;;;
2022/06/15 08:51:51;;;;;;;7.5;2.6;;;;;;;27.95;47.42676;938.5628;;;;
2022/06/15 08:54:18;;;;;;;3.4;2.2;;;;;;;28.46;45.36426;938.5889;;;;
2022/06/15 08:56:42;;;;;;;3.5;2;;;;;;;28.39;45.49902;938.5742;;;;
2022/06/15 08:59:07;;;;;;;3;2;;;;;;;28.74;43.25;938.5422;;;;
2022/06/15 09:01:32;;;;;;;2.3;2.1;;;;;;;28.91;42.07617;938.5528;;;;
2022/06/15 09:03:57;;;;;;;3.2;1.8;;;;;;;28.94;42.41309;938.6041;;;;
2022/06/15 09:06:23;;;;;;;2.4;2;;;;;;;29.19;42.56738;938.5502;;;;
2022/06/15 09:08:48;;;;;;;3.2;1.9;;;;;;;28.51;45.08203;938.5658;;;;
2022/06/15 09:11:15;;;;;;;4.4;2;;;;;;;28.94;42.06738;938.5739;;;;
2022/06/15 09:13:40;;;;;;;4;1.9;;;;;;;28.24;42.67871;938.5684;;;;
2022/06/15 09:16:07;;;;;;;2.8;2;;;;;;;28.34;44.60254;938.5736;;;;
2022/06/15 09:18:31;;;;;;;3.1;2;;;;;;;28.32;44.16016;938.543;;;;
2022/06/15 09:20:56;;;;;;;2;1.5;;;;;;;28.79;40.06543;938.5112;;;;
2022/06/15 09:23:21;;;;;;;2.1;1.9;;;;;;;28.26;42.84766;938.5358;;;;
2022/06/15 09:25:47;;;;;;;4.2;1.9;;;;;;;28.5;41.9541;938.5566;;;;
2022/06/15 09:28:18;;;;;;;3.2;1.8;;;;;;;28.77;40.07617;938.6085;;;;
2022/06/15 09:30:42;;;;;;;2.6;1.8;;;;;;;28.94;41.28125;938.5651;;;;
2022/06/15 09:33:08;;;;;;;4.2;1.8;;;;;;;29.07;42.53125;938.4998;;;;
2022/06/15 09:35:33;;;;;;;3;2.2;;;;;;;29.16;41.0625;938.4977;;;;
2022/06/15 09:37:58;;;;;;;3.5;1.9;;;;;;;29.18;41.89844;938.5315;;;;
2022/06/15 09:40:24;;;;;;;2.5;1.6;;;;;;;29.74;38.43262;938.5897;;;;
2022/06/15 09:42:49;;;;;;;2.6;1.8;;;;;;;29.6;39.44629;938.5305;;;;
2022/06/15 09:45:14;;;;;;;4;1.9;;;;;;;28.99;40.28516;938.5678;;;;
2022/06/15 09:47:39;;;;;;;1.9;1.8;;;;;;;29.12;39.47656;938.553;;;;
2022/06/15 09:50:06;;;;;;;1.8;1.5;;;;;;;29.14;38.57324;938.5616;;;;
2022/06/15 09:52:31;;;;;;;2.2;1.8;;;;;;;29.26;38.30859;938.5316;;;;
2022/06/15 09:54:56;;;;;;;2;1.7;;;;;;;28.99;37.61816;938.5251;;;;
2022/06/15 09:57:21;;;;;;;2.5;1.9;;;;;;;28.65;38.56641;938.5772;;;;
2022/06/15 09:59:46;;;;;;;3.9;1.8;;;;;;;28.77;40.56445;938.6325;;;;
2022/06/15 10:02:13;;;;;;;3.6;1.9;;;;;;;29.49;39.20996;938.5637;;;;
2022/06/15 10:04:39;;;;;;;2.1;1.9;;;;;;;29.62;39.01953;938.5952;;;;
2022/06/15 10:07:04;;;;;;;3.5;1.9;;;;;;;29.58;38.77734;938.52;;;;
2022/06/15 10:09:29;;;;;;;4.7;2;;;;;;;29.69;38.95313;938.5575;;;;
2022/06/15 10:11:54;;;;;;;3.7;1.7;;;;;;;29.43;40.01563;938.5457;;;;
2022/06/15 10:14:19;;;;;;;2.4;1.8;;;;;;;29.18;41.45801;938.5829;;;;
2022/06/15 10:16:44;;;;;;;4.2;1.8;;;;;;;28.8;40.62598;938.562;;;;
2022/06/15 10:19:11;;;;;;;4.1;1.8;;;;;;;28.49;40.82422;938.6067;;;;
2022/06/15 10:21:36;;;;;;;2.1;1.8;;;;;;;28.7;40.46191;938.5919;;;;
2022/06/15 10:24:02;;;;;;;2;1.8;;;;;;;28.95;41.48438;938.6513;;;;
2022/06/15 10:26:28;;;;;;;4.6;2;;;;;;;29.24;41.69043;938.5122;;;;
2022/06/15 10:28:53;;;;;;;2.5;1.9;;;;;;;29.32;40.93555;938.4989;;;;
2022/06/15 10:31:18;;;;;;;3.4;1.5;;;;;;;29.26;41.39453;938.5201;;;;
2022/06/15 10:33:43;;;;;;;7.3;2;;;;;;;29.43;41.1123;938.4964;;;;
2022/06/15 10:36:08;;;;;;;2.3;1.9;;;;;;;29.64;40.66602;938.4905;;;;
2022/06/15 10:38:33;;;;;;;4.2;2.2;;;;;;;29.57;40.33789;938.5148;;;;
2022/06/15 10:41:44;;;;;;;2.7;1.9;;;;;;;29.35;41.17578;938.4769;;;;
2022/06/15 10:43:23;;;;;;;2.5;1.9;;;;;;;29.63;40.66602;938.4422;;;;
2022/06/15 10:45:48;;;;;;;2.6;1.8;;;;;;;30.09;40.84961;938.4739;;;;
2022/06/15 10:48:14;;;;;;;5.2;2;;;;;;;30.22;40.78906;938.3937;;;;
2022/06/15 10:50:39;;;;;;;2.4;1.7;;;;;;;30.08;41.24316;938.3925;;;;
2022/06/15 10:53:04;;;;;;;2.5;1.8;;;;;;;30.27;41.08105;938.3369;;;;
2022/06/15 11:02:45;;;;;;;2.5;1.9;;;;;;;30.67;39.65918;938.3499;;;;
2022/06/15 11:05:13;;;;;;;2.6;1.8;;;;;;;30.42;40.40137;938.3791;;;;
2022/06/15 11:07:38;;;;;;;3.7;2;;;;;;;30.73;40.52539;938.3897;;;;
2022/06/15 11:10:04;;;;;;;4.1;1.7;;;;;;;31.05;39.7998;938.3156;;;;
2022/06/15 11:12:29;;;;;;;3.1;1.9;;;;;;;30.77;40.56445;938.3649;;;;
2022/06/15 11:14:54;;;;;;;3.2;1.9;;;;;;;30.9;39.99023;938.3981;;;;
2022/06/15 11:19:45;;;;;;;2.1;1.8;;;;;;;31.36;37.90039;938.4542;;;;
2022/06/15 11:22:10;;;;;;;3.1;1.9;;;;;;;31.56;38.89844;938.4178;;;;
2022/06/15 11:24:35;;;;;;;3.2;2;;;;;;;31.35;38.76074;938.399;;;;
2022/06/15 11:27:01;;;;;;;2.2;2;;;;;;;30.92;40.21875;938.3651;;;;
2022/06/15 11:29:25;;;;;;;3;2;;;;;;;30.81;40.00586;938.3733;;;;
2022/06/15 12:01:14;;;;;;;3;2.4;;;;;;;30.05;44.86719;938.245;;;;
2022/06/15 12:03:39;;;;;;;4.3;2.2;;;;;;;30.11;42.62988;938.2791;;;;
2022/06/15 12:06:05;;;;;;;2.5;2;;;;;;;30.17;41.6084;938.207;;;;
2022/06/15 12:08:31;;;;;;;2.5;2.1;;;;;;;30.15;41.42773;938.2086;;;;
2022/06/15 12:10:56;;;;;;;3;2.1;;;;;;;30.31;42.08691;938.1796;;;;
2022/06/15 12:13:24;;;;;;;4;2.3;;;;;;;30.51;41.26953;938.2831;;;;
2022/06/15 12:15:52;;;;;;;3.7;2.2;;;;;;;30.47;41.50488;938.2603;;;;
2022/06/15 12:18:17;;;;;;;2.7;2;;;;;;;30.38;40.76855;938.2148;;;;
2022/06/15 12:20:43;;;;;;;2.7;1.8;;;;;;;30.65;41.4502;938.2424;;;;
2022/06/15 12:23:08;;;;;;;4.1;2.2;;;;;;;30.86;41.22949;938.2003;;;;
2022/06/15 12:25:35;;;;;;;4.9;2.1;;;;;;;30.94;41.10547;938.16;;;;
2022/06/15 12:28:00;;;;;;;2.4;1.8;;;;;;;31.04;40.02637;938.2834;;;;
2022/06/15 12:30:26;;;;;;;2.2;2;;;;;;;31.24;40.31934;938.303;;;;
2022/06/15 12:32:51;;;;;;;4.3;1.9;;;;;;;30.96;40.38965;938.1556;;;;
2022/06/15 12:35:17;;;;;;;4;2.3;;;;;;;30.98;41.58789;938.2031;;;;
2022/06/15 12:37:43;;;;;;;3.7;2;;;;;;;31.12;40.44043;938.1922;;;;
2022/06/15 12:40:08;;;;;;;3.6;2.2;;;;;;;31.03;40.09766;938.1611;;;;
2022/06/15 12:42:33;;;;;;;3.5;2.3;;;;;;;30.62;41.61426;938.1797;;;;
2022/06/15 12:45:01;;;;;;;2.6;2.4;;;;;;;30.77;39.85938;938.2244;;;;
2022/06/15 12:47:30;;;;;;;3.4;2;;;;;;;30.58;40.0459;938.1467;;;;
2022/06/15 12:49:55;;;;;;;3.7;1.9;;;;;;;30.66;41.58203;938.1965;;;;
2022/06/15 12:52:21;;;;;;;3.6;2.2;;;;;;;30.62;41.2793;938.1731;;;;
2022/06/15 12:54:46;;;;;;;3.6;2.1;;;;;;;30.69;40.59375;938.2198;;;;
2022/06/15 12:57:11;;;;;;;3.8;2.3;;;;;;;30.8;39.38379;938.192;;;;
2022/06/15 12:59:36;;;;;;;3.3;2;;;;;;;30.72;38.2168;938.1566;;;;
2022/06/15 13:02:05;;;;;;;3.9;2.1;;;;;;;30.63;37.31445;938.1481;;;;
2022/06/15 13:04:37;;;;;;;2.1;1.8;;;;;;;30.64;37.67383;938.0994;;;;
2022/06/15 13:07:05;;;;;;;2.4;1.9;;;;;;;30.75;38.14844;938.1107;;;;
2022/06/15 13:09:33;;;;;;;3.3;2;;;;;;;30.86;38.34863;938.1249;;;;
2022/06/15 13:12:24;;;;;;;4.2;2.2;;;;;;;30.95;37.53223;938.1017;;;;
2022/06/15 13:14:52;;;;;;;4.2;1.8;;;;;;;30.47;38.60156;938.0969;;;;
2022/06/15 13:17:24;;;;;;;2.6;1.9;;;;;;;30.52;39.58691;938.1094;;;;
2022/06/15 13:19:49;;;;;;;3.6;1.9;;;;;;;30.3;37.69238;938.0636;;;;
2022/06/15 13:22:15;;;;;;;4.6;2;;;;;;;30.1;38.28516;938.0494;;;;
2022/06/15 13:24:42;;;;;;;3.3;2;;;;;;;30.26;38.17871;938.0637;;;;
2022/06/15 13:27:07;;;;;;;4.2;2.3;;;;;;;30.09;38.78516;938.0034;;;;
2022/06/15 13:29:36;;;;;;;4.3;1.7;;;;;;;30.3;37.41797;937.9832;;;;
2022/06/15 13:32:05;;;;;;;2.6;1.7;;;;;;;30.03;37.40723;937.972;;;;
2022/06/15 13:34:34;;;;;;;4.7;2;;;;;;;30.05;37.1582;937.9461;;;;
2022/06/15 13:36:59;;;;;;;2.9;2;;;;;;;30.23;36.76855;937.9615;;;;
2022/06/15 13:39:26;;;;;;;3.9;1.9;;;;;;;30.34;37.13477;937.9324;;;;
2022/06/15 13:41:51;;;;;;;2.9;1.7;;;;;;;30.54;37.12695;937.8519;;;;
2022/06/15 13:44:21;;;;;;;3.9;2.2;;;;;;;30.77;35.87891;937.8432;;;;
2022/06/15 13:46:44;;;;;;;2.6;1.6;;;;;;;30.78;35.31934;937.7935;;;;
2022/06/15 13:49:09;;;;;;;4.7;2;;;;;;;30.74;35.43457;937.816;;;;
2022/06/15 13:51:35;;;;;;;2;1.8;;;;;;;30.85;36.24414;937.7618;;;;
2022/06/15 13:54:02;;;;;;;2.2;1.7;;;;;;;30.82;35.71582;937.7542;;;;
2022/06/15 13:56:27;;;;;;;2.6;1.8;;;;;;;30.87;35.39648;937.74;;;;
2022/06/15 13:58:57;;;;;;;2.8;1.7;;;;;;;30.88;35.63672;937.6267;;;;
2022/06/15 14:01:22;;;;;;;3.9;2.2;;;;;;;30.89;35.93652;937.7205;;;;
2022/06/15 14:03:52;;;;;;;3.8;2.1;;;;;;;30.81;37.60449;937.7206;;;;
2022/06/15 14:06:17;;;;;;;4.6;1.8;;;;;;;30.77;35.87891;937.6833;;;;
2022/06/15 14:08:45;;;;;;;6.9;1.9;;;;;;;30.66;36.2168;937.7151;;;;
2022/06/15 14:11:16;;;;;;;2.6;1.8;;;;;;;30.72;36.72363;937.7059;;;;
2022/06/15 14:13:41;;;;;;;3.5;1.8;;;;;;;30.76;36.09375;937.7103;;;;
2022/06/15 14:16:07;;;;;;;2.3;1.9;;;;;;;30.8;36.51465;937.647;;;;
2022/06/15 14:18:36;;;;;;;3.1;2.2;;;;;;;30.78;36.46582;937.6409;;;;
2022/06/15 14:21:02;;;;;;;3.4;1.8;;;;;;;30.63;34.75684;937.6486;;;;
2022/06/15 14:23:27;;;;;;;3.4;1.8;;;;;;;30.51;35.47656;937.6535;;;;
2022/06/15 14:25:56;;;;;;;2;1.7;;;;;;;30.25;36.49512;937.696;;;;
2022/06/15 14:28:21;;;;;;;2.8;2.1;;;;;;;30.25;36.31543;937.674;;;;
2022/06/15 14:30:51;;;;;;;2.6;1.9;;;;;;;30.31;36.51172;937.6791;;;;
2022/06/15 14:33:16;;;;;;;5;1.9;;;;;;;30.22;36.91016;937.6383;;;;
2022/06/15 14:35:46;;;;;;;3.4;1.7;;;;;;;30.16;36.4043;937.6142;;;;
2022/06/15 14:38:13;;;;;;;4.3;2.3;;;;;;;30.01;36.64258;937.553;;;;
2022/06/15 14:40:38;;;;;;;4.6;2;;;;;;;29.83;36.53223;937.5853;;;;
2022/06/15 14:43:06;;;;;;;5.3;2.2;;;;;;;29.71;37;937.6223;;;;
2022/06/15 14:45:31;;;;;;;3.4;2.1;;;;;;;29.42;36.65332;937.5633;;;;
2022/06/15 14:47:56;;;;;;;4;1.9;;;;;;;29.33;37.75391;937.5997;;;;
2022/06/15 14:50:24;;;;;;;4;1.8;;;;;;;29.45;37.24023;937.5264;;;;
2022/06/15 14:52:52;;;;;;;4.2;1.8;;;;;;;29.54;38.06934;937.5881;;;;
2022/06/15 14:55:23;;;;;;;4.4;1.8;;;;;;;29.35;38.87695;937.6237;;;;
2022/06/15 14:57:56;;;;;;;2.5;2.1;;;;;;;29.3;39.0625;937.6811;;;;
2022/06/15 15:00:27;;;;;;;3.2;1.9;;;;;;;29.02;40.21777;937.6505;;;;
2022/06/15 15:02:59;;;;;;;2.6;1.9;;;;;;;28.9;40.59961;937.6956;;;;
2022/06/15 15:05:25;;;;;;;3.1;1.9;;;;;;;28.77;39.95703;937.6114;;;;
2022/06/15 15:08:07;;;;;;;4.4;2.1;;;;;;;28.69;40.21191;937.6336;;;;
2022/06/15 15:10:27;;;;;;;3.5;2;;;;;;;28.6;41.00098;937.6559;;;;